createdAt,value
2019-03-01T00:00:03.958Z,58.40
2019-03-01T00:05:58.384Z,61.90
2019-03-01T00:09:06.698Z,59.37
2019-03-01T00:12:13.698Z,60.73
2019-03-01T00:15:22.024Z,57.27
2019-03-01T00:18:29.014Z,57.30
2019-03-01T00:21:37.390Z,56.50
2019-03-01T00:24:44.379Z,58.60
2019-03-01T00:27:52.697Z,56.53
2019-03-01T00:30:59.699Z,56.93
2019-03-01T00:34:06.705Z,60.97
2019-03-01T00:37:15.081Z,59.07
2019-03-01T00:40:22.068Z,61.10
2019-03-01T00:43:30.391Z,58.07
2019-03-01T00:45:58.804Z,56.97
2019-03-01T00:48:46.321Z,57.57
2019-03-01T00:51:14.739Z,58.27
2019-03-01T00:54:02.386Z,61.50
2019-03-01T00:56:30.798Z,60.83
2019-03-01T00:59:18.321Z,59.70
2019-03-01T01:01:46.739Z,61.20
2019-03-01T01:04:15.147Z,60.80
2019-03-01T01:06:43.561Z,60.30
2019-03-01T01:09:12.216Z,58.70
2019-03-01T01:11:40.631Z,58.47
2019-03-01T01:14:09.033Z,56.77
2019-03-01T01:16:37.450Z,57.67
2019-03-01T01:19:24.966Z,59.60
2019-03-01T01:22:33.286Z,57.77
2019-03-01T01:25:20.802Z,57.47
2019-03-01T01:27:49.231Z,60.07
2019-03-01T01:30:17.632Z,57.17
2019-03-01T01:32:46.053Z,62.07
2019-03-01T01:35:33.704Z,60.90
2019-03-01T01:38:02.122Z,61.77
2019-03-01T01:40:49.879Z,60.73
2019-03-01T01:43:18.289Z,60.10
2019-03-01T01:46:05.942Z,61.97
2019-03-01T01:48:53.607Z,62.27
2019-03-01T01:51:22.010Z,59.97
2019-03-01T01:54:09.539Z,64.17
2019-03-01T01:59:31.138Z,56.30
2019-03-01T02:02:18.803Z,56.00
2019-03-01T02:05:06.470Z,61.27
2019-03-01T02:07:53.994Z,54.80
2019-03-01T02:11:02.299Z,56.40
2019-03-01T02:13:49.831Z,54.23
2019-03-01T02:16:18.240Z,58.97
2019-03-01T02:19:05.897Z,58.90
2019-03-01T02:21:34.301Z,57.17
2019-03-01T02:24:02.716Z,58.57
2019-03-01T02:26:50.369Z,59.37
2019-03-01T02:29:18.789Z,60.43
2019-03-01T02:31:59.644Z,61.13
2019-03-01T02:34:28.061Z,57.80
2019-03-01T02:37:15.591Z,59.30
2019-03-01T02:40:03.114Z,61.80
2019-03-01T02:42:31.529Z,61.83
2019-03-01T02:44:59.936Z,59.57
2019-03-01T02:47:47.593Z,54.70
2019-03-01T02:50:35.365Z,55.90
2019-03-01T02:53:22.998Z,55.80
2019-03-01T02:55:51.414Z,61.87
2019-03-01T02:58:39.083Z,60.23
2019-03-01T03:01:26.602Z,61.80
2019-03-01T03:04:14.131Z,64.50
2019-03-01T03:09:50.864Z,64.00
2019-03-01T03:15:46.671Z,66.53
2019-03-01T03:18:15.060Z,65.03
2019-03-01T03:21:02.706Z,63.03
2019-03-01T03:23:31.120Z,61.50
2019-03-01T03:25:59.545Z,68.60
2019-03-01T03:28:47.273Z,65.10
2019-03-01T03:31:15.689Z,65.87
2019-03-01T03:33:44.121Z,67.17
2019-03-01T03:36:31.763Z,62.93
2019-03-01T03:39:19.296Z,68.37
2019-03-01T03:41:47.697Z,66.27
2019-03-01T03:44:35.360Z,68.13
2019-03-01T03:47:22.877Z,68.07
2019-03-01T03:52:26.882Z,65.37
2019-03-01T03:55:14.552Z,70.03
2019-03-01T03:58:22.866Z,65.70
2019-03-01T04:00:51.279Z,61.50
2019-03-01T04:03:20.026Z,66.70
2019-03-01T04:05:48.441Z,66.97
2019-03-01T04:08:16.848Z,64.87
2019-03-01T04:10:45.269Z,65.57
2019-03-01T04:13:13.675Z,66.83
2019-03-01T04:15:42.448Z,63.57
2019-03-01T04:18:30.178Z,62.27
2019-03-01T04:21:17.841Z,61.67
2019-03-01T04:23:46.255Z,63.57
2019-03-01T04:37:10.146Z,62.30
2019-03-01T04:39:57.671Z,60.53
2019-03-01T04:42:26.084Z,61.00
2019-03-01T04:44:54.511Z,59.93
2019-03-01T04:47:22.924Z,65.23
2019-03-01T04:50:10.593Z,62.37
2019-03-01T04:53:18.898Z,65.47
2019-03-01T04:56:06.583Z,63.53
2019-03-01T04:58:54.108Z,64.17
2019-03-01T05:01:22.538Z,69.10
2019-03-01T05:03:50.953Z,68.07
2019-03-01T05:06:19.359Z,72.47
2019-03-01T05:08:48.123Z,68.53
2019-03-01T05:11:35.801Z,76.23
2019-03-01T05:14:44.117Z,77.77
2019-03-01T05:17:31.786Z,72.97
2019-03-01T05:20:19.319Z,60.03
2019-03-01T05:22:47.735Z,59.50
2019-03-01T05:25:16.155Z,57.57
2019-03-01T05:28:03.714Z,59.27
2019-03-01T05:30:32.149Z,60.27
2019-03-01T05:33:19.671Z,63.87
2019-03-01T05:36:07.367Z,64.30
2019-03-01T05:38:55.043Z,62.10
2019-03-01T05:41:42.710Z,59.40
2019-03-01T05:46:58.601Z,66.70
2019-03-01T05:49:27.015Z,63.90
2019-03-01T05:52:14.567Z,66.10
2019-03-01T05:54:42.972Z,66.43
2019-03-01T05:57:11.394Z,65.53
2019-03-01T05:59:39.796Z,62.60
2019-03-01T06:02:48.121Z,62.50
2019-03-01T06:05:16.529Z,58.40
2019-03-01T06:08:24.903Z,63.37
2019-03-01T06:11:33.232Z,66.37
2019-03-01T06:14:40.217Z,75.30
2019-03-01T06:17:47.219Z,72.07
2019-03-01T06:20:55.587Z,82.00
2019-03-01T06:24:03.910Z,79.47
2019-03-01T06:27:12.231Z,87.77
2019-03-01T06:30:19.244Z,81.33
2019-03-01T06:33:26.303Z,78.20
2019-03-01T06:36:34.628Z,82.50
2019-03-01T06:39:43.000Z,84.10
2019-03-01T06:42:50.006Z,83.67
2019-03-01T06:45:57.005Z,84.13
2019-03-01T06:54:18.455Z,75.33
2019-03-01T06:57:06.130Z,77.17
2019-03-01T06:59:34.537Z,76.20
2019-03-01T07:04:52.038Z,75.80
2019-03-01T07:07:20.455Z,75.20
2019-03-01T07:09:48.863Z,75.47
2019-03-01T07:12:36.526Z,72.00
2019-03-01T07:15:44.835Z,69.63
2019-03-01T07:18:32.498Z,73.10
2019-03-01T07:21:00.902Z,69.20
2019-03-01T07:23:48.430Z,71.87
2019-03-01T07:26:16.839Z,70.73
2019-03-01T07:31:19.751Z,70.67
2019-03-01T07:34:07.284Z,69.03
2019-03-01T07:36:35.687Z,62.53
2019-03-01T07:39:25.232Z,61.50
2019-03-01T07:41:53.594Z,65.33
2019-03-01T07:44:41.255Z,68.37
2019-03-01T07:47:09.662Z,62.33
2019-03-01T07:49:38.077Z,64.73
2019-03-01T07:52:06.477Z,68.70
2019-03-01T07:54:54.008Z,59.77
2019-03-01T07:57:22.414Z,52.57
2019-03-01T08:00:14.061Z,41.47
2019-03-01T08:03:22.665Z,37.90
2019-03-01T08:05:51.070Z,32.70
2019-03-01T08:10:56.340Z,35.00
2019-03-01T08:13:43.419Z,33.00
2019-03-01T08:16:11.827Z,33.47
2019-03-01T08:18:44.172Z,26.13
2019-03-01T08:21:11.423Z,23.13
2019-03-01T08:23:40.492Z,20.43
2019-03-01T08:26:08.895Z,20.93
2019-03-01T08:28:37.309Z,23.33
2019-03-01T08:31:05.701Z,20.00
2019-03-01T08:33:34.108Z,19.50
2019-03-01T08:36:21.626Z,19.27
2019-03-01T08:38:50.037Z,16.53
2019-03-01T08:41:37.550Z,16.83
2019-03-01T08:44:06.271Z,16.20
2019-03-01T08:46:34.668Z,14.57
2019-03-01T08:49:03.078Z,15.37
2019-03-01T08:54:38.277Z,15.47
2019-03-01T08:57:06.677Z,16.67
2019-03-01T08:59:54.329Z,15.07
2019-03-01T09:02:22.732Z,14.73
2019-03-01T09:04:51.353Z,15.27
2019-03-01T09:07:21.271Z,17.20
2019-03-01T09:10:32.666Z,14.80
2019-03-01T09:15:49.484Z,15.03
2019-03-01T09:18:17.313Z,16.80
2019-03-01T09:21:25.634Z,15.20
2019-03-01T09:23:55.101Z,15.03
2019-03-01T09:26:24.168Z,16.90
2019-03-01T09:29:13.039Z,15.63
2019-03-01T09:32:01.084Z,17.33
2019-03-01T09:37:22.578Z,15.93
2019-03-01T09:40:10.113Z,16.83
2019-03-01T09:42:57.761Z,16.20
2019-03-01T09:45:35.633Z,16.30
2019-03-01T09:51:02.861Z,15.67
2019-03-01T09:53:34.046Z,15.50
2019-03-01T09:56:01.399Z,14.77
2019-03-01T09:58:29.801Z,13.43
2019-03-01T10:01:38.126Z,14.10
2019-03-01T10:06:54.248Z,12.33
2019-03-01T10:12:10.099Z,13.70
2019-03-01T10:14:38.496Z,12.53
2019-03-01T10:22:58.142Z,13.60
2019-03-01T10:25:26.633Z,13.97
2019-03-01T10:28:14.189Z,15.17
2019-03-01T10:30:42.643Z,14.13
2019-03-01T10:33:11.075Z,15.97
2019-03-01T10:35:58.633Z,15.00
2019-03-01T10:38:46.296Z,16.33
2019-03-01T10:41:14.731Z,17.20
2019-03-01T10:43:43.145Z,15.57
2019-03-01T10:46:11.601Z,16.43
2019-03-01T10:48:40.013Z,15.10
2019-03-01T10:51:27.552Z,13.47
2019-03-01T10:53:55.949Z,11.40
2019-03-01T10:56:43.615Z,12.33
2019-03-01T10:59:31.266Z,11.57
2019-03-01T11:01:59.679Z,9.90
2019-03-01T11:04:28.070Z,8.00
2019-03-01T11:07:36.380Z,7.33
2019-03-01T11:10:44.693Z,7.90
2019-03-01T11:13:53.007Z,8.67
2019-03-01T11:19:08.847Z,6.10
2019-03-01T11:21:37.277Z,6.10
2019-03-01T11:27:15.517Z,6.50
2019-03-01T11:29:43.971Z,5.83
2019-03-01T11:32:31.485Z,5.67
2019-03-01T11:35:19.127Z,6.17
2019-03-01T11:37:47.544Z,5.40
2019-03-01T11:40:56.003Z,5.33
2019-03-01T11:43:45.161Z,6.33
2019-03-01T11:46:32.820Z,5.50
2019-03-01T11:49:20.367Z,6.90
2019-03-01T11:51:48.761Z,5.00
2019-03-01T11:54:36.440Z,5.17
2019-03-01T11:57:04.869Z,5.50
2019-03-01T11:59:33.303Z,5.10
2019-03-01T12:02:01.725Z,5.93
2019-03-01T12:04:49.499Z,5.57
2019-03-01T12:07:17.900Z,5.27
2019-03-01T12:10:05.590Z,5.70
2019-03-01T12:12:34.021Z,3.80
2019-03-01T12:15:02.464Z,3.77
2019-03-01T12:20:58.244Z,3.43
2019-03-01T12:23:45.894Z,2.73
2019-03-01T12:26:33.423Z,3.50
2019-03-01T12:29:01.842Z,2.90
2019-03-01T12:31:49.620Z,2.60
2019-03-01T12:34:37.363Z,2.67
2019-03-01T12:37:05.771Z,2.40
2019-03-01T12:39:53.328Z,2.43
2019-03-01T12:42:21.738Z,2.73
2019-03-01T12:45:09.277Z,3.70
2019-03-01T12:47:56.950Z,2.67
2019-03-01T12:50:25.363Z,2.30
2019-03-01T12:52:53.833Z,2.27
2019-03-01T12:56:02.159Z,2.10
2019-03-01T12:58:30.563Z,2.80
2019-03-01T13:03:46.407Z,3.00
2019-03-01T13:06:35.482Z,2.20
2019-03-01T13:09:44.071Z,2.77
2019-03-01T13:12:12.467Z,2.40
2019-03-01T13:15:00.179Z,2.57
2019-03-01T13:17:30.230Z,2.73
2019-03-01T13:20:01.221Z,2.13
2019-03-01T13:22:48.001Z,1.90
2019-03-01T13:25:16.403Z,2.10
2019-03-01T13:27:44.803Z,2.13
2019-03-01T13:30:53.121Z,1.57
2019-03-01T13:33:21.534Z,2.67
2019-03-01T13:38:23.846Z,2.23
2019-03-01T13:40:54.164Z,2.20
2019-03-01T13:43:23.763Z,2.60
2019-03-01T13:45:53.416Z,2.60
2019-03-01T13:48:22.623Z,2.30
2019-03-01T13:50:51.031Z,2.93
2019-03-01T13:53:38.803Z,2.10
2019-03-01T13:56:26.504Z,2.67
2019-03-01T13:59:14.230Z,2.20
2019-03-01T14:02:04.341Z,1.87
2019-03-01T14:04:32.248Z,3.07
2019-03-01T14:07:00.703Z,2.50
2019-03-01T14:14:59.273Z,3.00
2019-03-01T14:20:36.129Z,2.70
2019-03-01T14:23:44.522Z,2.73
2019-03-01T14:26:15.157Z,3.00
2019-03-01T14:34:04.732Z,2.90
2019-03-01T14:39:20.572Z,3.20
2019-03-01T14:41:48.965Z,3.17
2019-03-01T14:44:36.703Z,2.90
2019-03-01T14:47:24.216Z,3.57
2019-03-01T14:49:53.933Z,2.93
2019-03-01T14:52:41.861Z,3.00
2019-03-01T14:55:50.179Z,3.20
2019-03-01T14:58:59.023Z,3.10
2019-03-01T15:02:07.258Z,2.77
2019-03-01T15:04:54.912Z,2.83
2019-03-01T15:07:23.303Z,2.53
2019-03-01T15:10:14.894Z,2.30
2019-03-01T15:12:43.294Z,3.10
2019-03-01T15:15:13.034Z,3.10
2019-03-01T15:17:41.432Z,2.93
2019-03-01T15:20:12.549Z,2.30
2019-03-01T15:22:40.949Z,2.90
2019-03-01T15:25:11.989Z,3.40
2019-03-01T15:27:40.969Z,2.33
2019-03-01T15:30:12.506Z,2.58
2019-03-01T15:32:40.880Z,2.83
2019-03-01T15:35:09.550Z,3.07
2019-03-01T15:37:38.518Z,3.70
2019-03-01T15:40:09.266Z,4.27
2019-03-01T15:42:37.653Z,2.23
2019-03-01T15:45:09.106Z,3.50
2019-03-01T15:47:37.602Z,3.10
2019-03-01T15:50:11.064Z,2.50
2019-03-01T15:52:39.460Z,3.47
2019-03-01T15:55:11.774Z,3.17
2019-03-01T15:57:39.520Z,3.47
2019-03-01T16:00:18.747Z,3.00
2019-03-01T16:02:49.952Z,2.70
2019-03-01T16:05:17.257Z,2.90
2019-03-01T16:07:45.649Z,2.53
2019-03-01T16:10:16.737Z,3.17
2019-03-01T16:12:45.133Z,3.30
2019-03-01T16:15:16.985Z,3.53
2019-03-01T16:17:45.370Z,3.30
2019-03-01T16:20:16.185Z,2.60
2019-03-01T16:22:44.583Z,3.00
2019-03-01T16:25:17.241Z,3.70
2019-03-01T16:27:44.958Z,3.30
2019-03-01T16:30:18.304Z,3.27
2019-03-01T16:32:50.407Z,3.37
2019-03-01T16:35:18.058Z,3.10
2019-03-01T16:37:51.029Z,3.17
2019-03-01T16:40:19.552Z,2.60
2019-03-01T16:42:52.969Z,3.40
2019-03-01T16:45:21.197Z,3.53
2019-03-01T16:47:48.939Z,3.20
2019-03-01T16:50:18.087Z,3.27
2019-03-01T16:52:46.488Z,2.57
2019-03-01T16:55:27.968Z,3.77
2019-03-01T16:58:06.300Z,3.33
2019-03-01T17:00:26.822Z,3.33
2019-03-01T17:03:17.991Z,3.90
2019-03-01T17:05:44.818Z,3.00
2019-03-01T17:08:13.210Z,3.33
2019-03-01T17:10:42.184Z,2.83
2019-03-01T17:13:10.602Z,5.00
2019-03-01T17:15:39.002Z,3.90
2019-03-01T17:18:11.264Z,3.00
2019-03-01T17:20:38.574Z,3.27
2019-03-01T17:23:07.074Z,2.60
2019-03-01T17:25:35.474Z,2.63
2019-03-01T17:28:04.028Z,3.00
2019-03-01T17:30:32.438Z,3.30
2019-03-01T17:33:00.832Z,5.10
2019-03-01T17:35:29.265Z,3.00
2019-03-01T17:37:57.763Z,4.53
2019-03-01T17:40:29.259Z,3.67
2019-03-01T17:42:57.388Z,3.83
2019-03-01T17:45:26.640Z,3.27
2019-03-01T17:47:55.510Z,2.60
2019-03-01T17:50:23.934Z,3.87
2019-03-01T17:52:52.323Z,3.93
2019-03-01T17:55:24.375Z,3.50
2019-03-01T17:57:53.088Z,3.80
2019-03-01T18:00:36.973Z,3.70
2019-03-01T18:03:05.730Z,4.67
2019-03-01T18:05:36.991Z,4.70
2019-03-01T18:08:04.989Z,3.80
2019-03-01T18:10:33.515Z,4.60
2019-03-01T18:13:01.916Z,3.93
2019-03-01T18:15:30.312Z,4.40
2019-03-01T18:17:58.721Z,4.03
2019-03-01T18:20:27.195Z,4.23
2019-03-01T18:22:55.604Z,4.80
2019-03-01T18:25:26.199Z,5.17
2019-03-01T18:27:54.139Z,4.40
2019-03-01T18:30:33.438Z,3.90
2019-03-01T18:33:01.849Z,4.60
2019-03-01T18:35:30.343Z,4.80
2019-03-01T18:37:58.902Z,4.60
2019-03-01T18:40:27.300Z,4.17
2019-03-01T18:42:55.747Z,5.20
2019-03-01T18:45:25.579Z,4.43
2019-03-01T18:47:53.986Z,5.20
2019-03-01T18:50:37.012Z,4.97
2019-03-01T18:53:05.413Z,5.10
2019-03-01T18:55:33.814Z,5.00
2019-03-01T18:58:02.216Z,4.53
2019-03-01T19:00:36.965Z,5.00
2019-03-01T19:03:06.229Z,5.17
2019-03-01T19:05:36.570Z,5.13
2019-03-01T19:08:06.181Z,5.47
2019-03-01T19:10:35.140Z,5.33
2019-03-01T19:13:04.004Z,5.00
2019-03-01T19:15:32.491Z,5.90
2019-03-01T19:18:00.909Z,4.80
2019-03-01T19:20:31.760Z,6.60
2019-03-01T19:23:00.176Z,11.07
2019-03-01T19:25:28.575Z,8.70
2019-03-01T19:27:56.981Z,8.40
2019-03-01T19:30:26.016Z,6.80
2019-03-01T19:32:54.466Z,6.80
2019-03-01T19:35:28.507Z,6.97
2019-03-01T19:37:53.081Z,7.87
2019-03-01T19:40:22.922Z,8.27
2019-03-01T19:42:51.329Z,7.07
2019-03-01T19:45:20.328Z,6.20
2019-03-01T19:47:48.771Z,6.30
2019-03-01T19:50:25.081Z,7.23
2019-03-01T19:52:52.954Z,5.90
2019-03-01T19:55:21.356Z,6.70
2019-03-01T19:57:49.777Z,6.17
2019-03-01T20:00:28.978Z,7.70
2019-03-01T20:02:57.404Z,9.60
2019-03-01T20:05:31.880Z,7.00
2019-03-01T20:08:00.728Z,10.47
2019-03-01T20:10:29.133Z,6.00
2019-03-01T20:12:58.516Z,14.70
2019-03-01T20:15:28.174Z,7.33
2019-03-01T20:17:56.610Z,7.70
2019-03-01T20:20:33.355Z,8.80
2019-03-01T20:23:01.347Z,10.23
2019-03-01T20:25:29.875Z,7.87
2019-03-01T20:27:58.297Z,5.90
2019-03-01T20:30:30.195Z,5.50
2019-03-01T20:32:58.165Z,6.30
2019-03-01T20:35:27.033Z,5.40
2019-03-01T20:37:55.602Z,5.40
2019-03-01T20:40:26.592Z,4.90
2019-03-01T20:42:56.014Z,4.87
2019-03-01T20:45:32.305Z,5.13
2019-03-01T20:48:00.793Z,5.77
2019-03-01T20:50:29.215Z,5.10
2019-03-01T20:52:57.612Z,4.40
2019-03-01T20:55:26.016Z,4.90
2019-03-01T20:57:54.498Z,6.13
2019-03-01T21:00:29.998Z,7.07
2019-03-01T21:02:58.503Z,5.67
2019-03-01T21:05:28.937Z,5.07
2019-03-01T21:07:57.061Z,4.73
2019-03-01T21:10:46.752Z,4.03
2019-03-01T21:13:14.943Z,4.20
2019-03-01T21:15:43.352Z,3.60
2019-03-01T21:18:34.069Z,5.13
2019-03-01T21:21:20.253Z,4.43
2019-03-01T21:24:07.769Z,3.83
2019-03-01T21:32:11.719Z,4.10
2019-03-01T21:34:41.650Z,4.50
2019-03-01T21:37:29.300Z,4.20
2019-03-01T21:40:16.829Z,4.00
2019-03-01T21:42:45.326Z,4.90
2019-03-01T21:45:33.182Z,3.80
2019-03-01T21:48:22.030Z,4.30
2019-03-01T21:50:51.621Z,4.37
2019-03-01T21:53:39.896Z,4.20
2019-03-01T21:56:09.843Z,4.53
2019-03-01T22:01:45.020Z,4.63
2019-03-01T22:07:08.216Z,4.40
2019-03-01T22:09:56.780Z,3.87
2019-03-01T22:12:45.095Z,3.00
2019-03-01T22:18:25.879Z,3.73
2019-03-01T22:21:16.912Z,3.50
2019-03-01T22:24:02.968Z,3.60
2019-03-01T22:26:50.616Z,3.20
2019-03-01T22:29:38.257Z,3.20
2019-03-01T22:32:07.350Z,3.17
2019-03-01T22:34:36.804Z,4.00
2019-03-01T22:39:58.719Z,2.87
2019-03-01T22:42:49.696Z,3.23
2019-03-01T22:45:56.492Z,2.53
2019-03-01T22:48:24.898Z,3.17
2019-03-01T22:50:53.298Z,3.50
2019-03-01T22:53:42.072Z,3.03
2019-03-01T22:56:30.188Z,2.77
2019-03-01T22:59:38.495Z,2.50
2019-03-01T23:02:46.805Z,2.43
2019-03-01T23:08:21.766Z,2.87
2019-03-01T23:13:42.942Z,3.33
2019-03-01T23:16:11.344Z,2.93
2019-03-01T23:21:47.815Z,2.80
2019-03-01T23:27:22.777Z,2.90
2019-03-01T23:29:54.345Z,2.80
2019-03-01T23:32:40.404Z,2.70
2019-03-01T23:35:08.800Z,2.70
2019-03-01T23:37:38.913Z,2.67
2019-03-01T23:40:47.233Z,3.30
2019-03-01T23:45:53.793Z,3.07
2019-03-01T23:50:54.131Z,3.17
2019-03-01T23:53:41.654Z,3.50
2019-03-01T23:56:10.333Z,2.77
2019-03-01T23:58:38.745Z,2.50
